Time;durP1;ratioP1;P1;durP2;ratioP2;P2;SDS_P1;SDS_P2;PMS_P1;PMS_P2;Temp;Humidity;BMP_temperature;BMP_pressure;BME280_temperature;BME280_humidity;BME280_pressure;Samples;Min_cycle;Max_cycle;Signal;HPM_P1;HPM_P2
2022/05/28 00:00:24;;;;;;;31.13;4.45;;;9.20;92.40;;;;;;6089864;23;20026;-80
2022/05/28 00:02:50;;;;;;;16.00;3.50;;;9.20;92.00;;;;;;6094212;23;20150;-80
2022/05/28 00:05:17;;;;;;;25.17;3.70;;;9.10;91.20;;;;;;6091739;23;20113;-80
2022/05/28 00:07:44;;;;;;;22.58;3.50;;;9.10;91.90;;;;;;6092110;23;20093;-80
2022/05/28 00:10:14;;;;;;;16.30;3.80;;;9.10;91.60;;;;;;6089321;23;20052;-80
2022/05/28 00:12:41;;;;;;;25.02;3.90;;;9.10;91.70;;;;;;6089784;23;20030;-79
2022/05/28 00:15:09;;;;;;;19.55;3.90;;;9.10;91.50;;;;;;6089919;23;20097;-80
2022/05/28 00:17:36;;;;;;;21.58;3.90;;;9.00;92.10;;;;;;6086991;23;20703;-80
2022/05/28 00:20:06;;;;;;;22.45;3.72;;;9.00;92.10;;;;;;6090509;23;20023;-80
2022/05/28 00:22:41;;;;;;;20.02;3.63;;;9.00;92.10;;;;;;6087932;23;20019;-80
2022/05/28 00:25:10;;;;;;;19.33;3.80;;;9.00;92.20;;;;;;6092599;23;20031;-80
2022/05/28 00:27:37;;;;;;;16.20;3.78;;;8.90;92.20;;;;;;6088603;23;20027;-80
2022/05/28 00:30:06;;;;;;;17.17;4.22;;;8.90;91.90;;;;;;6089911;23;20485;-79
2022/05/28 00:32:33;;;;;;;16.30;3.63;;;8.90;91.70;;;;;;6092405;23;20031;-80
2022/05/28 00:35:00;;;;;;;22.15;4.10;;;8.90;92.10;;;;;;6091332;23;20074;-80
2022/05/28 00:37:26;;;;;;;12.57;3.80;;;8.80;92.20;;;;;;6092833;23;20033;-80
2022/05/28 00:39:53;;;;;;;20.13;4.47;;;8.80;92.50;;;;;;6091900;23;20037;-79
2022/05/28 00:42:20;;;;;;;15.93;4.20;;;8.80;92.20;;;;;;6094329;23;20367;-80
2022/05/28 00:44:47;;;;;;;18.58;4.45;;;8.80;92.60;;;;;;6093095;23;20063;-80
2022/05/28 00:47:14;;;;;;;22.08;3.88;;;8.70;92.60;;;;;;6092185;23;20046;-80
2022/05/28 00:49:42;;;;;;;13.30;3.70;;;8.70;92.80;;;;;;6090906;23;20027;-80
2022/05/28 00:52:09;;;;;;;24.15;4.05;;;8.70;92.80;;;;;;6089565;23;20023;-80
2022/05/28 00:54:46;;;;;;;24.95;4.80;;;8.70;92.70;;;;;;6091081;23;20474;-80
2022/05/28 00:57:15;;;;;;;13.98;4.15;;;8.70;93.20;;;;;;6093195;23;20026;-80
2022/05/28 00:59:43;;;;;;;25.13;3.85;;;8.60;93.10;;;;;;6093475;23;20048;-80
2022/05/28 01:02:32;;;;;;;22.88;3.72;;;8.60;93.50;;;;;;6093487;23;20431;-79
2022/05/28 01:05:31;;;;;;;17.48;4.18;;;8.60;93.60;;;;;;6093132;23;20164;-80
2022/05/28 01:08:08;;;;;;;23.85;3.97;;;8.60;93.90;;;;;;6090938;23;20549;-80
2022/05/28 01:11:04;;;;;;;19.63;3.78;;;8.70;93.80;;;;;;6093183;23;20019;-80
2022/05/28 01:13:49;;;;;;;13.45;3.40;;;8.70;94.00;;;;;;6032071;23;20058;-79
2022/05/28 01:16:40;;;;;;;12.73;3.22;;;8.70;93.80;;;;;;6032389;23;20568;-79
2022/05/28 01:19:16;;;;;;;26.52;5.00;;;8.70;93.90;;;;;;6031535;23;20029;-80
2022/05/28 01:21:47;;;;;;;18.27;3.33;;;8.80;94.50;;;;;;6031922;23;20096;-80
2022/05/28 01:24:31;;;;;;;23.05;3.80;;;8.80;94.50;;;;;;6031953;23;20034;-80
2022/05/28 01:27:02;;;;;;;35.03;5.35;;;8.70;94.20;;;;;;6031518;23;20518;-80
2022/05/28 01:29:38;;;;;;;20.83;3.30;;;8.80;94.50;;;;;;6031774;23;20106;-81
2022/05/28 01:32:05;;;;;;;17.55;3.47;;;8.80;94.80;;;;;;6030723;23;20102;-79
2022/05/28 01:34:33;;;;;;;24.00;3.67;;;8.90;94.60;;;;;;6031258;23;20027;-80
2022/05/28 01:37:01;;;;;;;20.92;3.45;;;8.90;94.80;;;;;;6030542;23;20036;-79
2022/05/28 01:39:29;;;;;;;15.27;3.47;;;8.90;94.70;;;;;;6031521;23;20027;-80
2022/05/28 01:41:56;;;;;;;25.35;3.60;;;9.00;94.40;;;;;;6031203;23;20038;-80
2022/05/28 01:44:23;;;;;;;19.05;2.85;;;9.00;94.00;;;;;;6030975;23;20630;-80
2022/05/28 01:46:51;;;;;;;21.17;2.88;;;9.00;93.80;;;;;;6031664;23;20075;-80
2022/05/28 01:49:19;;;;;;;18.52;3.08;;;9.00;94.10;;;;;;6031868;23;20028;-80
2022/05/28 01:51:55;;;;;;;14.90;3.17;;;9.00;94.10;;;;;;6088482;23;20147;-79
2022/05/28 01:54:26;;;;;;;13.07;2.80;;;9.00;94.20;;;;;;6092820;23;20044;-80
2022/05/28 01:56:55;;;;;;;17.17;3.05;;;8.90;94.30;;;;;;6092461;23;20038;-80
2022/05/28 01:59:33;;;;;;;18.98;3.50;;;8.90;94.60;;;;;;6090887;23;20494;-79
2022/05/28 02:02:02;;;;;;;15.95;3.28;;;8.90;94.50;;;;;;6091683;23;20149;-80
2022/05/28 02:04:30;;;;;;;17.50;3.28;;;8.90;94.40;;;;;;6091819;23;20085;-80
2022/05/28 02:06:57;;;;;;;25.05;3.22;;;8.80;94.30;;;;;;6091168;23;20035;-80
2022/05/28 02:09:29;;;;;;;27.17;3.47;;;8.80;94.50;;;;;;6092110;23;20110;-80
2022/05/28 02:12:04;;;;;;;12.23;2.90;;;8.80;94.60;;;;;;6092199;23;20026;-80
2022/05/28 02:14:56;;;;;;;21.88;3.75;;;8.80;94.60;;;;;;6091322;23;20023;-81
2022/05/28 02:17:39;;;;;;;17.80;3.17;;;8.80;94.60;;;;;;6091622;23;20027;-80
2022/05/28 02:20:22;;;;;;;19.15;3.53;;;8.80;94.60;;;;;;6091163;23;20412;-80
2022/05/28 02:23:20;;;;;;;15.95;2.88;;;8.70;94.30;;;;;;6091963;23;20027;-79
2022/05/28 02:26:02;;;;;;;20.42;3.22;;;8.70;94.30;;;;;;6094000;23;20451;-80
2022/05/28 02:28:30;;;;;;;18.15;2.85;;;8.70;94.70;;;;;;6092064;23;20031;-80
2022/05/28 02:31:04;;;;;;;21.30;3.05;;;8.70;94.90;;;;;;6091428;23;20497;-80
2022/05/28 02:33:32;;;;;;;21.02;3.53;;;8.70;95.20;;;;;;6093763;23;20034;-79
2022/05/28 02:35:59;;;;;;;24.17;3.53;;;8.60;94.90;;;;;;6093327;23;20031;-80
2022/05/28 02:38:26;;;;;;;19.55;3.10;;;8.60;94.80;;;;;;6092909;23;20027;-79
2022/05/28 02:40:55;;;;;;;19.02;2.85;;;8.60;94.80;;;;;;6093350;23;20027;-80
2022/05/28 02:43:23;;;;;;;14.32;3.50;;;8.50;94.60;;;;;;6092498;23;20338;-80
2022/05/28 02:45:50;;;;;;;21.55;3.72;;;8.50;94.80;;;;;;6093593;23;20027;-79
2022/05/28 02:48:17;;;;;;;26.55;3.40;;;8.50;95.00;;;;;;6093728;23;20494;-80
2022/05/28 02:50:43;;;;;;;17.55;3.28;;;8.50;95.10;;;;;;6092348;23;20541;-79
2022/05/28 02:53:12;;;;;;;27.13;2.90;;;8.50;95.30;;;;;;6091955;23;20027;-79
2022/05/28 02:55:40;;;;;;;17.20;3.42;;;8.50;95.40;;;;;;6091501;23;20027;-80
2022/05/28 02:58:12;;;;;;;19.38;2.53;;;8.50;95.40;;;;;;6091819;23;20565;-80
2022/05/28 03:00:39;;;;;;;18.17;2.50;;;8.50;95.40;;;;;;6093254;23;20027;-80
2022/05/28 03:03:05;;;;;;;26.02;3.78;;;8.50;95.30;;;;;;6091063;23;20101;-79
2022/05/28 03:05:32;;;;;;;28.70;4.35;;;8.50;95.70;;;;;;6091323;23;20035;-80
2022/05/28 03:07:59;;;;;;;16.17;2.58;;;8.50;95.50;;;;;;6092397;23;20041;-79
2022/05/28 03:10:25;;;;;;;19.65;3.22;;;8.50;95.60;;;;;;6093166;23;20692;-79
2022/05/28 03:12:52;;;;;;;23.85;3.20;;;8.50;95.70;;;;;;6092632;23;20085;-80
2022/05/28 03:15:19;;;;;;;21.98;2.97;;;8.50;95.80;;;;;;6092041;23;20027;-80
2022/05/28 03:17:46;;;;;;;11.88;2.72;;;8.50;95.90;;;;;;6090998;23;20041;-80
2022/05/28 03:20:13;;;;;;;12.98;2.72;;;8.50;95.70;;;;;;6092290;23;20026;-79
2022/05/28 03:22:39;;;;;;;16.77;2.90;;;8.50;95.70;;;;;;6091981;23;20334;-79
2022/05/28 03:25:06;;;;;;;16.77;2.67;;;8.50;95.50;;;;;;6092995;23;20030;-80
2022/05/28 03:27:33;;;;;;;12.10;2.75;;;8.50;95.70;;;;;;6093407;23;20050;-80
2022/05/28 03:30:00;;;;;;;16.40;2.60;;;8.50;95.60;;;;;;6093445;23;20086;-79
2022/05/28 03:32:26;;;;;;;17.27;3.00;;;8.50;95.40;;;;;;6092277;23;20465;-80
2022/05/28 03:34:53;;;;;;;20.33;2.80;;;8.50;95.40;;;;;;6094144;23;20055;-79
2022/05/28 03:37:20;;;;;;;18.90;2.88;;;8.50;95.60;;;;;;6091204;23;20480;-80
2022/05/28 03:39:46;;;;;;;14.73;2.58;;;8.50;95.50;;;;;;6093073;23;20110;-80
2022/05/28 03:42:13;;;;;;;13.82;2.55;;;8.40;95.50;;;;;;6093194;23;20023;-80
2022/05/28 03:44:40;;;;;;;13.77;2.00;;;8.40;95.30;;;;;;6092523;23;20216;-79
2022/05/28 03:47:07;;;;;;;20.33;2.85;;;8.40;95.20;;;;;;6095139;23;20436;-80
2022/05/28 03:49:37;;;;;;;19.17;2.90;;;8.50;95.60;;;;;;6097788;23;20773;-80
2022/05/28 03:52:05;;;;;;;14.90;2.40;;;8.40;95.60;;;;;;6096669;23;20023;-80
2022/05/28 03:54:31;;;;;;;11.88;2.20;;;8.50;95.60;;;;;;6099513;23;20038;-80
2022/05/28 03:57:00;;;;;;;8.27;1.92;;;8.40;95.30;;;;;;6100129;23;20066;-80
2022/05/28 03:59:27;;;;;;;14.48;2.50;;;8.40;95.20;;;;;;6093411;23;20031;-80
2022/05/28 04:01:53;;;;;;;14.82;2.28;;;8.30;95.10;;;;;;6093026;23;20444;-80
2022/05/28 04:04:20;;;;;;;15.63;2.78;;;8.30;95.20;;;;;;6099003;23;20033;-80
2022/05/28 04:06:47;;;;;;;10.18;2.25;;;8.30;95.40;;;;;;6093547;23;20031;-80
2022/05/28 04:09:14;;;;;;;16.15;2.10;;;8.40;95.90;;;;;;6094054;23;20033;-79
2022/05/28 04:11:40;;;;;;;17.95;2.53;;;8.30;95.50;;;;;;6093108;23;20569;-80
2022/05/28 04:14:07;;;;;;;20.70;2.33;;;8.30;95.50;;;;;;6093380;23;20064;-79
2022/05/28 04:16:34;;;;;;;12.15;2.15;;;8.30;95.60;;;;;;6095026;23;20445;-80
2022/05/28 04:19:01;;;;;;;16.20;2.53;;;8.30;95.60;;;;;;6097726;23;20478;-80
2022/05/28 04:21:28;;;;;;;16.48;2.20;;;8.30;95.60;;;;;;6094081;23;20037;-80
2022/05/28 04:23:54;;;;;;;13.70;1.85;;;8.30;95.50;;;;;;6097265;23;20026;-80
2022/05/28 04:26:21;;;;;;;17.02;2.75;;;8.30;95.80;;;;;;6093524;23;20065;-79
2022/05/28 04:28:48;;;;;;;12.55;2.65;;;8.40;95.80;;;;;;6092470;23;20027;-80
2022/05/28 04:31:14;;;;;;;17.30;1.90;;;8.40;95.70;;;;;;6093134;23;20530;-79
2022/05/28 04:33:41;;;;;;;10.57;2.75;;;8.40;95.60;;;;;;6092702;23;20201;-79
2022/05/28 04:36:08;;;;;;;13.82;2.20;;;8.50;95.40;;;;;;6090336;23;20031;-79
2022/05/28 04:38:34;;;;;;;15.40;1.92;;;8.50;95.50;;;;;;6092615;23;20027;-80
2022/05/28 04:41:01;;;;;;;12.98;1.50;;;8.60;95.20;;;;;;6090457;23;20051;-80
2022/05/28 04:43:28;;;;;;;8.50;1.80;;;8.60;95.00;;;;;;6091031;23;20026;-79
2022/05/28 04:45:54;;;;;;;13.77;1.77;;;8.70;95.10;;;;;;6091534;23;20149;-79
2022/05/28 04:48:21;;;;;;;13.48;1.95;;;8.80;94.80;;;;;;6090560;23;20041;-79
2022/05/28 04:50:48;;;;;;;13.07;1.95;;;8.80;94.50;;;;;;6091662;23;20057;-80
2022/05/28 04:53:15;;;;;;;14.57;1.80;;;8.90;94.50;;;;;;6093110;23;20027;-80
2022/05/28 04:55:41;;;;;;;10.45;1.83;;;8.90;94.30;;;;;;6091313;23;20101;-80
2022/05/28 04:58:14;;;;;;;7.45;1.40;;;8.90;93.70;;;;;;6091706;23;20027;-79
2022/05/28 05:00:41;;;;;;;6.22;1.70;;;9.00;93.70;;;;;;6092804;23;20031;-79
2022/05/28 05:03:07;;;;;;;11.20;1.90;;;9.00;93.90;;;;;;6091492;23;20030;-79
2022/05/28 05:05:34;;;;;;;8.38;1.52;;;9.00;93.90;;;;;;6092685;23;20533;-79
2022/05/28 05:08:01;;;;;;;11.88;1.88;;;9.10;93.80;;;;;;6093220;23;20033;-79
2022/05/28 05:10:28;;;;;;;7.97;1.55;;;9.20;93.80;;;;;;6093305;23;20458;-79
2022/05/28 05:12:54;;;;;;;10.45;2.15;;;9.20;92.90;;;;;;6091599;23;20011;-79
2022/05/28 05:15:21;;;;;;;12.25;1.80;;;9.20;92.60;;;;;;6093000;23;20114;-80
2022/05/28 05:17:48;;;;;;;6.40;1.17;;;9.30;92.30;;;;;;6092031;23;20455;-80
2022/05/28 05:20:15;;;;;;;6.85;1.65;;;9.30;91.10;;;;;;6092996;23;20019;-79
2022/05/28 05:22:42;;;;;;;7.88;1.33;;;9.40;90.80;;;;;;6090718;23;20030;-79
2022/05/28 05:25:10;;;;;;;8.25;1.92;;;9.50;91.20;;;;;;6092701;23;20041;-80
2022/05/28 05:27:37;;;;;;;15.75;2.38;;;9.50;91.80;;;;;;6090385;23;20074;-79
2022/05/28 05:30:05;;;;;;;8.32;1.77;;;9.60;90.60;;;;;;6091013;23;20031;-79
2022/05/28 05:32:32;;;;;;;8.68;1.63;;;9.70;89.60;;;;;;6092882;23;20113;-80
2022/05/28 05:34:59;;;;;;;10.60;1.60;;;9.80;90.00;;;;;;6091889;23;20034;-79
2022/05/28 05:37:26;;;;;;;7.57;1.60;;;9.90;89.50;;;;;;6091736;23;20070;-80
2022/05/28 05:39:52;;;;;;;11.63;2.03;;;10.00;88.40;;;;;;6092290;23;20022;-79
2022/05/28 05:42:19;;;;;;;12.90;1.90;;;10.00;87.30;;;;;;6091915;23;20049;-80
2022/05/28 05:44:46;;;;;;;6.57;1.33;;;10.10;88.00;;;;;;6091260;23;20104;-79
2022/05/28 05:47:13;;;;;;;9.00;1.92;;;10.10;87.80;;;;;;6066420;23;20026;-80
2022/05/28 05:49:39;;;;;;;7.43;1.70;;;10.10;85.60;;;;;;6091973;23;20041;-79
2022/05/28 05:52:07;;;;;;;7.80;1.40;;;10.20;86.60;;;;;;6091573;23;20031;-80
2022/05/28 05:54:34;;;;;;;10.27;1.92;;;10.30;86.00;;;;;;6090808;23;20031;-79
2022/05/28 05:57:00;;;;;;;9.98;1.30;;;10.40;85.30;;;;;;6090249;23;20694;-80
2022/05/28 05:59:27;;;;;;;15.50;2.47;;;10.50;84.70;;;;;;6092102;23;20027;-80
2022/05/28 06:01:54;;;;;;;7.63;1.60;;;10.50;85.40;;;;;;6092621;23;20027;-80
2022/05/28 06:04:21;;;;;;;10.77;1.95;;;10.50;84.20;;;;;;6093891;23;20030;-80
2022/05/28 06:06:48;;;;;;;6.90;1.50;;;10.50;84.60;;;;;;6093198;23;20031;-79
2022/05/28 06:09:15;;;;;;;8.00;1.55;;;10.50;82.30;;;;;;6092887;23;20098;-80
2022/05/28 06:11:41;;;;;;;11.20;1.73;;;10.60;82.60;;;;;;6093961;23;20026;-79
2022/05/28 06:14:08;;;;;;;13.05;1.80;;;10.60;82.50;;;;;;6093486;23;20476;-79
2022/05/28 06:16:35;;;;;;;11.07;1.50;;;10.60;81.20;;;;;;6094845;23;20037;-80
2022/05/28 06:19:04;;;;;;;8.38;1.45;;;10.70;79.40;;;;;;6100814;23;20019;-79
2022/05/28 06:21:31;;;;;;;10.35;1.38;;;10.90;77.30;;;;;;6097992;23;20037;-79
2022/05/28 06:24:00;;;;;;;9.15;1.52;;;11.00;80.00;;;;;;6092559;23;20062;-79
2022/05/28 06:26:28;;;;;;;8.35;2.00;;;11.00;77.10;;;;;;6091803;23;20106;-79
2022/05/28 06:28:55;;;;;;;9.40;1.48;;;11.10;76.30;;;;;;6093838;23;20555;-80
2022/05/28 06:31:22;;;;;;;7.72;1.33;;;11.10;75.70;;;;;;6093670;23;20477;-79
2022/05/28 06:33:49;;;;;;;17.83;1.77;;;11.30;75.40;;;;;;6093343;23;20055;-80
2022/05/28 06:36:15;;;;;;;11.40;1.60;;;11.40;76.80;;;;;;6093476;23;20098;-80
2022/05/28 06:38:45;;;;;;;13.50;2.30;;;11.50;75.50;;;;;;6093613;23;20862;-79
2022/05/28 06:41:12;;;;;;;9.98;1.70;;;11.70;74.70;;;;;;6091778;23;20054;-80
2022/05/28 06:43:40;;;;;;;7.13;1.95;;;11.90;74.70;;;;;;6093097;23;20031;-79
2022/05/28 06:46:09;;;;;;;7.40;1.55;;;12.00;72.40;;;;;;6097907;23;20034;-79
2022/05/28 06:48:36;;;;;;;11.23;1.88;;;12.10;70.90;;;;;;6093375;23;20094;-78
2022/05/28 06:51:04;;;;;;;6.90;1.60;;;12.20;67.70;;;;;;6091936;23;20031;-80
2022/05/28 06:53:40;;;;;;;13.13;1.92;;;12.30;70.90;;;;;;6094071;23;20026;-79
2022/05/28 06:56:08;;;;;;;13.55;1.98;;;12.40;70.30;;;;;;6091541;23;20774;-79
2022/05/28 06:58:37;;;;;;;10.02;2.22;;;12.50;66.90;;;;;;6093387;23;20065;-79
2022/05/28 07:01:06;;;;;;;8.52;1.45;;;12.50;65.30;;;;;;6092734;23;20467;-80
2022/05/28 07:03:34;;;;;;;10.38;1.40;;;12.60;64.00;;;;;;6092933;23;20034;-80
2022/05/28 07:06:01;;;;;;;7.88;2.00;;;12.70;66.30;;;;;;6131660;23;20105;-80
2022/05/28 07:08:31;;;;;;;7.85;1.45;;;12.80;66.20;;;;;;6150060;23;20037;-79
2022/05/28 07:11:00;;;;;;;11.00;1.80;;;12.80;66.30;;;;;;6151018;23;20084;-80
2022/05/28 07:13:30;;;;;;;7.72;1.38;;;12.70;65.50;;;;;;6151530;23;20489;-79
2022/05/28 07:15:57;;;;;;;6.63;1.60;;;12.70;61.50;;;;;;6152854;23;20452;-80
2022/05/28 07:18:24;;;;;;;10.27;1.70;;;12.70;61.50;;;;;;6147480;23;20037;-79
2022/05/28 07:20:51;;;;;;;9.85;1.33;;;12.80;60.80;;;;;;6123405;23;20022;-79
2022/05/28 07:23:23;;;;;;;15.13;1.95;;;13.20;62.90;;;;;;6147806;23;20037;-80
2022/05/28 07:26:05;;;;;;;7.57;1.33;;;13.90;61.40;;;;;;6147601;23;20022;-80
2022/05/28 07:28:33;;;;;;;12.77;2.25;;;14.30;58.70;;;;;;6151472;23;20109;-80
2022/05/28 07:31:02;;;;;;;7.82;1.70;;;14.60;60.10;;;;;;6150963;23;20081;-80
2022/05/28 07:33:32;;;;;;;9.93;1.90;;;14.90;58.80;;;;;;6148657;23;20448;-81
2022/05/28 07:36:00;;;;;;;8.43;1.88;;;15.40;59.50;;;;;;6142932;23;20033;-80
2022/05/28 07:38:29;;;;;;;11.15;2.17;;;15.60;58.30;;;;;;6151771;23;20032;-81
2022/05/28 07:40:56;;;;;;;10.15;1.55;;;15.60;56.60;;;;;;6148210;23;20482;-80
2022/05/28 07:43:23;;;;;;;8.60;2.20;;;15.20;58.00;;;;;;6149593;23;20026;-80
2022/05/28 07:45:53;;;;;;;9.52;2.22;;;14.80;58.90;;;;;;6147082;23;20813;-80
2022/05/28 07:48:20;;;;;;;9.48;2.05;;;14.50;60.10;;;;;;6148338;23;20026;-80
2022/05/28 07:50:50;;;;;;;6.82;1.65;;;14.30;61.90;;;;;;6149645;23;20026;-80
2022/05/28 07:53:16;;;;;;;10.80;2.20;;;14.10;61.10;;;;;;6151279;23;20033;-79
2022/05/28 07:55:43;;;;;;;8.13;1.50;;;14.20;58.90;;;;;;6153308;23;20363;-80
2022/05/28 07:58:12;;;;;;;11.93;1.85;;;14.70;56.00;;;;;;6151796;23;20022;-79
2022/05/28 08:00:44;;;;;;;12.77;1.85;;;15.20;55.80;;;;;;6152409;23;20101;-80
2022/05/28 08:03:13;;;;;;;8.05;2.10;;;15.60;55.10;;;;;;6153292;23;20054;-80
2022/05/28 08:05:46;;;;;;;8.80;1.70;;;16.00;49.10;;;;;;6152104;23;20021;-80
2022/05/28 08:08:14;;;;;;;6.50;1.60;;;16.40;48.60;;;;;;6153698;23;20052;-78
2022/05/28 08:10:41;;;;;;;5.40;1.30;;;16.70;45.50;;;;;;6153313;23;20097;-77
2022/05/28 08:13:10;;;;;;;6.50;2.15;;;17.00;47.00;;;;;;6153533;23;20034;-77
2022/05/28 08:15:44;;;;;;;12.93;1.80;;;17.30;45.90;;;;;;6150818;23;20332;-78
2022/05/28 08:18:13;;;;;;;7.53;1.60;;;17.70;46.10;;;;;;6152206;23;20026;-77
2022/05/28 08:23:33;;;;;;;9.07;1.95;;;18.40;47.80;;;;;;6150153;23;20525;-79
2022/05/28 08:26:00;;;;;;;9.57;2.15;;;18.50;47.10;;;;;;6152287;23;20030;-78
2022/05/28 08:28:27;;;;;;;8.73;2.50;;;18.20;45.40;;;;;;6153301;23;20030;-77
2022/05/28 08:30:54;;;;;;;9.52;1.83;;;17.90;45.60;;;;;;6152591;23;20026;-78
2022/05/28 08:33:21;;;;;;;5.70;1.80;;;18.00;48.00;;;;;;6151837;23;20038;-79
2022/05/28 08:35:50;;;;;;;8.77;2.13;;;18.20;46.80;;;;;;6150553;23;20541;-78
2022/05/28 08:38:19;;;;;;;10.65;2.40;;;18.40;44.30;;;;;;6152096;23;20022;-78
2022/05/28 08:40:55;;;;;;;8.50;2.10;;;18.30;45.40;;;;;;6153160;23;20029;-79
2022/05/28 08:43:28;;;;;;;6.68;1.90;;;18.40;46.20;;;;;;6153203;23;20476;-78
2022/05/28 08:45:54;;;;;;;11.07;2.40;;;18.20;46.00;;;;;;6150982;23;20026;-78
2022/05/28 08:48:34;;;;;;;8.38;2.00;;;17.70;49.30;;;;;;6151401;23;20060;-78
2022/05/28 08:51:16;;;;;;;8.50;2.33;;;18.00;48.10;;;;;;6152555;23;20484;-78
2022/05/28 08:53:55;;;;;;;12.25;2.10;;;18.10;48.10;;;;;;6152700;23;20524;-78
2022/05/28 08:56:26;;;;;;;14.98;2.60;;;18.10;47.00;;;;;;6151782;23;20106;-77
2022/05/28 08:59:05;;;;;;;10.77;2.05;;;18.40;46.70;;;;;;6147459;23;20025;-78
2022/05/28 09:01:35;;;;;;;9.32;1.98;;;18.60;47.30;;;;;;6149116;23;20101;-79
2022/05/28 09:04:06;;;;;;;10.38;2.15;;;19.00;45.80;;;;;;6149462;23;20064;-78
2022/05/28 09:06:43;;;;;;;9.32;2.30;;;19.10;43.90;;;;;;6151782;23;20480;-78
2022/05/28 09:09:15;;;;;;;14.82;2.20;;;18.50;44.80;;;;;;6150003;23;20476;-78
2022/05/28 09:11:58;;;;;;;15.02;2.42;;;17.90;46.40;;;;;;6153595;23;20032;-80
2022/05/28 09:14:30;;;;;;;7.53;1.80;;;17.20;46.60;;;;;;6153271;23;20138;-80
2022/05/28 09:17:07;;;;;;;7.97;1.77;;;16.70;48.70;;;;;;6150061;23;20521;-80
2022/05/28 09:19:41;;;;;;;9.57;2.00;;;16.30;48.60;;;;;;6153308;23;20045;-80
2022/05/28 09:22:08;;;;;;;11.23;2.10;;;16.90;48.20;;;;;;6150380;23;20066;-81
2022/05/28 09:24:41;;;;;;;9.95;2.17;;;17.60;47.20;;;;;;6152183;23;20018;-80
2022/05/28 09:27:46;;;;;;;13.88;2.17;;;18.00;46.60;;;;;;6152638;23;20109;-81
2022/05/28 09:30:25;;;;;;;11.85;2.00;;;18.20;45.70;;;;;;6154021;23;20089;-80
2022/05/28 09:33:21;;;;;;;9.48;2.20;;;18.50;45.60;;;;;;6150725;23;20457;-80
2022/05/28 09:36:13;;;;;;;9.10;2.00;;;18.70;45.10;;;;;;6153091;23;20040;-81
2022/05/28 09:39:25;;;;;;;10.38;2.13;;;18.20;45.20;;;;;;6151457;23;20033;-80
2022/05/28 09:42:02;;;;;;;11.20;1.75;;;17.50;44.00;;;;;;6149285;23;20060;-79
2022/05/28 09:44:58;;;;;;;8.95;1.77;;;17.30;43.40;;;;;;6153797;23;20026;-80
2022/05/28 09:47:24;;;;;;;8.85;2.08;;;17.20;45.70;;;;;;6152426;23;20030;-79
2022/05/28 09:49:54;;;;;;;7.95;2.08;;;16.90;44.50;;;;;;6150772;23;20469;-80
2022/05/28 09:52:26;;;;;;;9.43;2.22;;;16.50;45.80;;;;;;6152556;23;20033;-79
2022/05/28 09:55:10;;;;;;;12.23;2.60;;;16.40;48.50;;;;;;6155164;23;20053;-80
2022/05/28 09:58:06;;;;;;;9.07;1.70;;;16.50;47.70;;;;;;6154815;23;20372;-80
2022/05/28 10:00:32;;;;;;;10.13;2.10;;;17.00;48.00;;;;;;6156546;23;20026;-79
2022/05/28 10:05:55;;;;;;;8.70;1.98;;;17.00;46.20;;;;;;6153430;23;20022;-79
2022/05/28 10:08:33;;;;;;;9.50;2.15;;;16.90;48.10;;;;;;6151931;23;20086;-80
2022/05/28 10:11:03;;;;;;;14.60;3.03;;;16.50;48.40;;;;;;6152259;23;20030;-80
2022/05/28 10:13:56;;;;;;;10.43;2.20;;;16.40;49.10;;;;;;6151951;23;20101;-80
2022/05/28 10:16:26;;;;;;;8.98;1.90;;;16.50;48.40;;;;;;6153894;23;20026;-80
2022/05/28 10:19:39;;;;;;;12.35;2.22;;;16.30;49.20;;;;;;6152150;23;20030;-80
2022/05/28 10:22:16;;;;;;;13.18;2.20;;;16.80;49.80;;;;;;6146396;23;20036;-79
2022/05/28 10:24:54;;;;;;;14.43;2.15;;;17.00;47.20;;;;;;6151399;23;20452;-80
2022/05/28 10:27:27;;;;;;;12.07;2.25;;;16.80;48.70;;;;;;6152496;23;20097;-80
2022/05/28 10:29:57;;;;;;;9.98;2.05;;;16.50;49.10;;;;;;6151331;23;20724;-80
2022/05/28 10:32:49;;;;;;;10.00;1.90;;;16.30;49.80;;;;;;6150936;23;20030;-80
2022/05/28 10:35:20;;;;;;;8.18;1.77;;;16.30;48.80;;;;;;6145321;23;20022;-80
2022/05/28 10:37:50;;;;;;;9.80;1.83;;;16.70;49.70;;;;;;6149224;23;20537;-80
2022/05/28 10:40:27;;;;;;;7.70;1.55;;;17.30;47.30;;;;;;6148803;23;20034;-80
2022/05/28 10:43:01;;;;;;;7.47;1.50;;;16.90;44.40;;;;;;6152195;23;20025;-80
2022/05/28 10:45:43;;;;;;;3.33;1.02;;;16.40;41.90;;;;;;6152406;23;20030;-80
2022/05/28 10:48:19;;;;;;;5.90;1.33;;;16.70;42.40;;;;;;6152335;23;20030;-80
2022/05/28 10:51:10;;;;;;;5.93;1.40;;;17.60;41.50;;;;;;6152420;23;20030;-80
2022/05/28 10:54:04;;;;;;;6.45;1.38;;;18.50;38.60;;;;;;6154133;23;20104;-80
2022/05/28 10:56:42;;;;;;;6.68;1.77;;;18.80;38.20;;;;;;6154334;23;20022;-79
2022/05/28 10:59:22;;;;;;;6.32;1.40;;;18.70;39.40;;;;;;6154534;23;20036;-80
2022/05/28 11:02:15;;;;;;;5.45;1.25;;;18.20;40.90;;;;;;6153980;23;20034;-79
2022/05/28 11:04:50;;;;;;;4.97;1.40;;;17.80;40.40;;;;;;6153145;23;20037;-80
2022/05/28 11:07:38;;;;;;;8.35;1.58;;;17.60;42.80;;;;;;6154092;23;20548;-80
2022/05/28 11:10:05;;;;;;;10.10;2.00;;;18.10;41.40;;;;;;6153788;23;20455;-80
2022/05/28 11:12:59;;;;;;;9.57;1.88;;;18.90;40.50;;;;;;6152924;23;20135;-80
2022/05/28 11:15:46;;;;;;;9.13;1.80;;;19.90;38.60;;;;;;6151539;23;20069;-81
2022/05/28 11:18:37;;;;;;;7.40;1.48;;;19.40;37.70;;;;;;6152581;23;20030;-81
2022/05/28 11:21:20;;;;;;;8.40;1.98;;;18.60;41.10;;;;;;6151382;23;20030;-80
2022/05/28 11:24:18;;;;;;;9.13;2.03;;;18.00;43.60;;;;;;6152313;23;20104;-80
2022/05/28 11:27:03;;;;;;;11.77;2.60;;;17.30;46.30;;;;;;6153626;23;20029;-81
2022/05/28 11:29:52;;;;;;;11.13;1.98;;;16.90;47.30;;;;;;6152928;23;20149;-80
2022/05/28 11:32:34;;;;;;;13.18;2.10;;;16.70;46.40;;;;;;6153495;23;20030;-81
2022/05/28 11:35:27;;;;;;;10.45;1.92;;;16.50;44.80;;;;;;6153967;23;20038;-80
2022/05/28 11:38:05;;;;;;;6.68;1.83;;;16.20;46.60;;;;;;6153713;23;20032;-79
2022/05/28 11:41:04;;;;;;;9.88;1.92;;;16.20;48.70;;;;;;6153291;23;20022;-80
2022/05/28 11:43:40;;;;;;;9.32;2.00;;;16.40;48.10;;;;;;6152330;23;20109;-79
2022/05/28 11:46:30;;;;;;;8.57;1.85;;;16.90;47.70;;;;;;6153101;23;20030;-79
2022/05/28 11:52:22;;;;;;;8.27;1.60;;;16.50;43.80;;;;;;6153028;23;20465;-78
2022/05/28 11:54:58;;;;;;;6.47;1.92;;;17.30;44.40;;;;;;6153288;23;20022;-79
2022/05/28 11:57:43;;;;;;;7.05;1.50;;;18.30;41.10;;;;;;6153875;23;20072;-79
2022/05/28 12:00:13;;;;;;;4.60;1.30;;;18.80;40.70;;;;;;6151994;23;20788;-79
2022/05/28 12:02:50;;;;;;;7.57;1.60;;;18.60;40.70;;;;;;6152019;23;20830;-80
2022/05/28 12:05:25;;;;;;;5.15;1.50;;;18.30;40.10;;;;;;6153964;23;20044;-79
2022/05/28 12:08:02;;;;;;;5.25;1.42;;;18.90;37.50;;;;;;6152071;23;20524;-79
2022/05/28 12:10:44;;;;;;;5.18;1.50;;;19.50;39.00;;;;;;6150784;23;20026;-80
2022/05/28 12:13:11;;;;;;;9.98;1.92;;;19.60;37.50;;;;;;6151986;23;20093;-80
2022/05/28 12:15:38;;;;;;;7.05;1.63;;;18.70;40.10;;;;;;6151295;23;20026;-78
2022/05/28 12:18:14;;;;;;;7.25;1.65;;;18.20;43.90;;;;;;6153260;23;20400;-80
2022/05/28 12:20:58;;;;;;;12.10;1.90;;;18.90;42.80;;;;;;6150255;23;20461;-78
2022/05/28 12:23:28;;;;;;;7.07;1.80;;;19.60;42.20;;;;;;6143608;23;20029;-79
2022/05/28 12:25:54;;;;;;;9.75;2.38;;;20.60;41.20;;;;;;6151820;23;20025;-79
2022/05/28 12:28:29;;;;;;;13.63;2.15;;;21.20;37.50;;;;;;6151558;23;20562;-79
2022/05/28 12:30:58;;;;;;;12.77;1.88;;;20.60;38.80;;;;;;6150108;23;20040;-79
2022/05/28 12:33:28;;;;;;;12.25;2.20;;;19.40;40.00;;;;;;6150763;23;20026;-80
2022/05/28 12:36:21;;;;;;;13.73;2.05;;;18.30;41.70;;;;;;6149078;23;20030;-79
2022/05/28 12:39:49;;;;;;;7.28;2.08;;;17.80;43.90;;;;;;6150008;23;20034;-80
2022/05/28 12:42:23;;;;;;;14.00;1.83;;;17.90;43.20;;;;;;6146558;23;20107;-80
2022/05/28 12:44:51;;;;;;;10.63;1.80;;;17.70;45.10;;;;;;6150513;23;20022;-80
2022/05/28 12:47:27;;;;;;;9.52;2.30;;;17.30;45.10;;;;;;6151539;23;20026;-79
2022/05/28 12:50:24;;;;;;;13.68;2.10;;;17.00;45.30;;;;;;6149664;23;20022;-79
2022/05/28 12:52:59;;;;;;;10.07;1.88;;;16.70;45.30;;;;;;6151737;23;20022;-78
2022/05/28 12:55:45;;;;;;;6.28;1.75;;;16.60;47.90;;;;;;6155193;23;20022;-79
2022/05/28 12:58:28;;;;;;;7.75;2.03;;;16.80;44.80;;;;;;6154108;23;20050;-80
2022/05/28 13:00:56;;;;;;;5.68;1.70;;;17.90;43.50;;;;;;6157006;23;20760;-79
2022/05/28 13:03:30;;;;;;;6.50;1.45;;;18.90;40.50;;;;;;6152512;23;20028;-80
2022/05/28 13:06:04;;;;;;;4.90;1.55;;;19.40;38.10;;;;;;6150502;23;20073;-81
2022/05/28 13:08:33;;;;;;;8.02;1.67;;;20.00;36.70;;;;;;6151155;23;20033;-80
2022/05/28 13:11:06;;;;;;;8.38;1.77;;;20.20;38.40;;;;;;6150176;23;20081;-74
2022/05/28 13:14:11;;;;;;;8.52;1.73;;;20.60;37.40;;;;;;6150851;23;20030;-74
2022/05/28 13:17:21;;;;;;;6.28;1.55;;;21.00;34.70;;;;;;6141265;23;20033;-74
2022/05/28 13:20:24;;;;;;;10.35;1.73;;;21.60;34.60;;;;;;6149879;23;20414;-76
2022/05/28 13:23:23;;;;;;;10.85;2.15;;;21.60;36.20;;;;;;6151006;23;20034;-76